sensor_id;sensor_type;location;lat;lon;timestamp;pressure;altitude;pressure_sealevel;temperature;humidity
28428;BME280;15662;49.128;8.520;2023-12-20T00:01:08;100577.06;;;11.28;55.25
28428;BME280;15662;49.128;8.520;2023-12-20T00:03:35;100582.22;;;11.34;55.35
28428;BME280;15662;49.128;8.520;2023-12-20T00:06:09;100586.75;;;11.29;55.43
28428;BME280;15662;49.128;8.520;2023-12-20T00:08:37;100580.53;;;11.30;55.57
28428;BME280;15662;49.128;8.520;2023-12-20T00:11:04;100584.09;;;11.29;55.51
28428;BME280;15662;49.128;8.520;2023-12-20T00:13:31;100579.72;;;11.27;55.71
28428;BME280;15662;49.128;8.520;2023-12-20T00:15:58;100584.22;;;11.25;56.02
28428;BME280;15662;49.128;8.520;2023-12-20T00:18:26;100578.06;;;11.23;55.93
28428;BME280;15662;49.128;8.520;2023-12-20T00:20:53;100594.91;;;11.22;56.24
28428;BME280;15662;49.128;8.520;2023-12-20T00:23:20;100588.72;;;11.21;55.93
28428;BME280;15662;49.128;8.520;2023-12-20T00:25:47;100577.31;;;11.18;56.01
28428;BME280;15662;49.128;8.520;2023-12-20T00:28:14;100586.94;;;11.22;56.08
28428;BME280;15662;49.128;8.520;2023-12-20T00:30:41;100574.69;;;11.16;56.26
28428;BME280;15662;49.128;8.520;2023-12-20T00:33:09;100583.50;;;11.18;56.22
28428;BME280;15662;49.128;8.520;2023-12-20T00:35:36;100579.09;;;11.17;56.57
28428;BME280;15662;49.128;8.520;2023-12-20T00:38:03;100579.97;;;11.18;56.51
28428;BME280;15662;49.128;8.520;2023-12-20T00:40:32;100574.66;;;11.18;56.60
28428;BME280;15662;49.128;8.520;2023-12-20T00:43:00;100582.63;;;11.18;56.74
28428;BME280;15662;49.128;8.520;2023-12-20T00:45:27;100576.47;;;11.16;56.29
28428;BME280;15662;49.128;8.520;2023-12-20T00:47:54;100573.88;;;11.14;56.51
28428;BME280;15662;49.128;8.520;2023-12-20T00:50:21;100570.38;;;11.14;56.69
28428;BME280;15662;49.128;8.520;2023-12-20T00:52:49;100580.88;;;11.17;56.70
28428;BME280;15662;49.128;8.520;2023-12-20T00:55:17;100571.22;;;11.14;56.89
28428;BME280;15662;49.128;8.520;2023-12-20T00:57:44;100567.78;;;11.10;57.10
28428;BME280;15662;49.128;8.520;2023-12-20T01:00:12;100565.28;;;11.04;57.07
28428;BME280;15662;49.128;8.520;2023-12-20T01:02:40;100570.66;;;11.01;57.18
28428;BME280;15662;49.128;8.520;2023-12-20T01:05:07;100573.28;;;11.01;57.29
28428;BME280;15662;49.128;8.520;2023-12-20T01:07:36;100569.94;;;10.95;57.54
28428;BME280;15662;49.128;8.520;2023-12-20T01:10:03;100562.84;;;10.95;57.79
28428;BME280;15662;49.128;8.520;2023-12-20T01:12:30;100575.22;;;10.95;57.54
28428;BME280;15662;49.128;8.520;2023-12-20T01:14:58;100570.03;;;10.90;57.62
28428;BME280;15662;49.128;8.520;2023-12-20T01:17:25;100574.47;;;10.90;57.75
28428;BME280;15662;49.128;8.520;2023-12-20T01:19:52;100564.63;;;10.93;57.89
28428;BME280;15662;49.128;8.520;2023-12-20T01:22:19;100574.31;;;10.96;57.70
28428;BME280;15662;49.128;8.520;2023-12-20T01:24:47;100564.53;;;10.98;57.79
28428;BME280;15662;49.128;8.520;2023-12-20T01:27:14;100558.31;;;11.00;57.71
28428;BME280;15662;49.128;8.520;2023-12-20T01:29:41;100562.72;;;11.00;57.90
28428;BME280;15662;49.128;8.520;2023-12-20T01:32:08;100543.53;;;10.90;58.16
28428;BME280;15662;49.128;8.520;2023-12-20T01:34:35;100550.50;;;10.94;58.00
28428;BME280;15662;49.128;8.520;2023-12-20T01:37:03;100555.75;;;10.96;58.16
28428;BME280;15662;49.128;8.520;2023-12-20T01:39:31;100552.13;;;10.98;57.96
28428;BME280;15662;49.128;8.520;2023-12-20T01:41:58;100558.25;;;11.02;58.00
28428;BME280;15662;49.128;8.520;2023-12-20T01:44:25;100550.28;;;11.02;58.39
28428;BME280;15662;49.128;8.520;2023-12-20T01:46:54;100547.63;;;11.02;58.17
28428;BME280;15662;49.128;8.520;2023-12-20T01:49:22;100562.50;;;11.09;57.95
28428;BME280;15662;49.128;8.520;2023-12-20T01:51:50;100558.13;;;11.06;58.14
28428;BME280;15662;49.128;8.520;2023-12-20T01:54:19;100558.03;;;11.11;57.90
28428;BME280;15662;49.128;8.520;2023-12-20T01:56:49;100549.25;;;11.07;57.97
28428;BME280;15662;49.128;8.520;2023-12-20T01:59:18;100546.47;;;11.14;57.88
28428;BME280;15662;49.128;8.520;2023-12-20T02:01:47;100563.28;;;11.14;58.26
28428;BME280;15662;49.128;8.520;2023-12-20T02:04:14;100550.88;;;11.15;58.18
28428;BME280;15662;49.128;8.520;2023-12-20T02:06:42;100546.44;;;11.15;58.13
28428;BME280;15662;49.128;8.520;2023-12-20T02:09:10;100562.28;;;11.18;58.06
28428;BME280;15662;49.128;8.520;2023-12-20T02:11:38;100557.00;;;11.17;58.06
28428;BME280;15662;49.128;8.520;2023-12-20T02:14:05;100546.28;;;11.21;57.93
28428;BME280;15662;49.128;8.520;2023-12-20T02:16:32;100557.81;;;11.20;57.90
28428;BME280;15662;49.128;8.520;2023-12-20T02:19:00;100541.81;;;11.23;57.88
28428;BME280;15662;49.128;8.520;2023-12-20T02:21:33;100547.88;;;11.27;57.98
28428;BME280;15662;49.128;8.520;2023-12-20T02:24:04;100546.22;;;11.24;58.19
28428;BME280;15662;49.128;8.520;2023-12-20T02:26:33;100544.41;;;11.25;57.91
28428;BME280;15662;49.128;8.520;2023-12-20T02:29:00;100547.06;;;11.25;58.01
28428;BME280;15662;49.128;8.520;2023-12-20T02:31:28;100554.13;;;11.26;58.14
28428;BME280;15662;49.128;8.520;2023-12-20T02:33:55;100536.50;;;11.23;58.32
28428;BME280;15662;49.128;8.520;2023-12-20T02:36:22;100551.41;;;11.29;58.11
28428;BME280;15662;49.128;8.520;2023-12-20T02:38:49;100560.25;;;11.28;58.17
28428;BME280;15662;49.128;8.520;2023-12-20T02:41:17;100558.59;;;11.24;58.36
28428;BME280;15662;49.128;8.520;2023-12-20T02:43:45;100551.53;;;11.23;58.30
28428;BME280;15662;49.128;8.520;2023-12-20T02:46:14;100565.59;;;11.26;58.44
28428;BME280;15662;49.128;8.520;2023-12-20T02:48:42;100563.88;;;11.25;58.45
28428;BME280;15662;49.128;8.520;2023-12-20T02:51:09;100576.16;;;11.29;58.26
28428;BME280;15662;49.128;8.520;2023-12-20T02:53:37;100568.19;;;11.28;58.46
28428;BME280;15662;49.128;8.520;2023-12-20T02:56:04;100578.75;;;11.31;58.30
28428;BME280;15662;49.128;8.520;2023-12-20T02:58:31;100569.91;;;11.30;58.48
28428;BME280;15662;49.128;8.520;2023-12-20T03:00:58;100568.34;;;11.23;58.53
28428;BME280;15662;49.128;8.520;2023-12-20T03:03:26;100563.81;;;11.27;58.39
28428;BME280;15662;49.128;8.520;2023-12-20T03:05:53;100571.72;;;11.30;58.25
28428;BME280;15662;49.128;8.520;2023-12-20T03:08:20;100563.69;;;11.31;58.36
28428;BME280;15662;49.128;8.520;2023-12-20T03:10:47;100558.38;;;11.33;58.27
28428;BME280;15662;49.128;8.520;2023-12-20T03:13:15;100557.47;;;11.34;58.40
28428;BME280;15662;49.128;8.520;2023-12-20T03:15:42;100558.28;;;11.36;58.21
28428;BME280;15662;49.128;8.520;2023-12-20T03:18:09;100564.38;;;11.40;58.19
28428;BME280;15662;49.128;8.520;2023-12-20T03:20:36;100556.47;;;11.38;58.21
28428;BME280;15662;49.128;8.520;2023-12-20T03:23:03;100549.56;;;11.31;58.21
28428;BME280;15662;49.128;8.520;2023-12-20T03:25:31;100567.09;;;11.38;58.43
28428;BME280;15662;49.128;8.520;2023-12-20T03:27:58;100566.16;;;11.39;58.38
28428;BME280;15662;49.128;8.520;2023-12-20T03:30:25;100561.78;;;11.38;58.52
28428;BME280;15662;49.128;8.520;2023-12-20T03:32:52;100568.13;;;11.31;58.38
28428;BME280;15662;49.128;8.520;2023-12-20T03:35:19;100574.25;;;11.34;58.31
28428;BME280;15662;49.128;8.520;2023-12-20T03:37:46;100563.69;;;11.31;58.30
28428;BME280;15662;49.128;8.520;2023-12-20T03:40:14;100568.94;;;11.34;58.38
28428;BME280;15662;49.128;8.520;2023-12-20T03:42:41;100568.06;;;11.34;58.57
28428;BME280;15662;49.128;8.520;2023-12-20T03:45:09;100563.50;;;11.39;58.42
28428;BME280;15662;49.128;8.520;2023-12-20T03:47:36;100567.00;;;11.41;58.41
28428;BME280;15662;49.128;8.520;2023-12-20T03:50:04;100559.06;;;11.40;58.46
28428;BME280;15662;49.128;8.520;2023-12-20T03:52:31;100550.25;;;11.37;58.43
28428;BME280;15662;49.128;8.520;2023-12-20T03:54:58;100561.72;;;11.40;58.33
28428;BME280;15662;49.128;8.520;2023-12-20T03:57:25;100571.44;;;11.41;58.22
28428;BME280;15662;49.128;8.520;2023-12-20T03:59:52;100565.44;;;11.32;58.57
28428;BME280;15662;49.128;8.520;2023-12-20T04:02:19;100575.94;;;11.37;58.40
28428;BME280;15662;49.128;8.520;2023-12-20T04:04:46;100579.50;;;11.36;58.56
28428;BME280;15662;49.128;8.520;2023-12-20T04:07:14;100575.94;;;11.37;58.53
28428;BME280;15662;49.128;8.520;2023-12-20T04:09:41;100579.44;;;11.39;58.45
28428;BME280;15662;49.128;8.520;2023-12-20T04:12:09;100568.78;;;11.41;58.39
28428;BME280;15662;49.128;8.520;2023-12-20T04:14:36;100584.66;;;11.42;58.68
28428;BME280;15662;49.128;8.520;2023-12-20T04:17:03;100581.97;;;11.44;58.46
28428;BME280;15662;49.128;8.520;2023-12-20T04:19:30;100574.84;;;11.46;58.46
28428;BME280;15662;49.128;8.520;2023-12-20T04:21:57;100577.47;;;11.46;58.59
28428;BME280;15662;49.128;8.520;2023-12-20T04:24:24;100578.34;;;11.46;58.52
28428;BME280;15662;49.128;8.520;2023-12-20T04:26:52;100585.38;;;11.49;58.37
28428;BME280;15662;49.128;8.520;2023-12-20T04:29:19;100596.88;;;11.49;58.30
28428;BME280;15662;49.128;8.520;2023-12-20T04:31:46;100596.00;;;11.49;58.29
28428;BME280;15662;49.128;8.520;2023-12-20T04:34:13;100596.75;;;11.54;58.47
28428;BME280;15662;49.128;8.520;2023-12-20T04:36:40;100593.19;;;11.55;58.51
28428;BME280;15662;49.128;8.520;2023-12-20T04:39:07;100600.28;;;11.54;58.41
28428;BME280;15662;49.128;8.520;2023-12-20T04:41:34;100599.31;;;11.57;58.44
28428;BME280;15662;49.128;8.520;2023-12-20T04:44:02;100593.13;;;11.56;58.35
28428;BME280;15662;49.128;8.520;2023-12-20T04:46:29;100605.47;;;11.57;58.39
28428;BME280;15662;49.128;8.520;2023-12-20T04:48:56;100614.34;;;11.58;58.40
28428;BME280;15662;49.128;8.520;2023-12-20T04:51:23;100610.91;;;11.54;58.27
28428;BME280;15662;49.128;8.520;2023-12-20T04:53:50;100624.03;;;11.59;58.35
28428;BME280;15662;49.128;8.520;2023-12-20T04:56:18;100624.97;;;11.58;58.33
28428;BME280;15662;49.128;8.520;2023-12-20T04:58:45;100617.88;;;11.57;58.59
28428;BME280;15662;49.128;8.520;2023-12-20T05:01:13;100612.56;;;11.57;58.36
28428;BME280;15662;49.128;8.520;2023-12-20T05:03:40;100623.25;;;11.55;58.41
28428;BME280;15662;49.128;8.520;2023-12-20T05:06:07;100624.22;;;11.51;58.37
28428;BME280;15662;49.128;8.520;2023-12-20T05:08:34;100623.25;;;11.55;58.63
28428;BME280;15662;49.128;8.520;2023-12-20T05:11:01;100624.16;;;11.54;58.45
28428;BME280;15662;49.128;8.520;2023-12-20T05:13:28;100620.66;;;11.52;58.50
28428;BME280;15662;49.128;8.520;2023-12-20T05:16:10;100620.66;;;11.52;58.60
28428;BME280;15662;49.128;8.520;2023-12-20T05:18:38;100633.91;;;11.54;58.75
28428;BME280;15662;49.128;8.520;2023-12-20T05:21:05;100633.06;;;11.52;58.67
28428;BME280;15662;49.128;8.520;2023-12-20T05:23:32;100641.91;;;11.52;58.59
28428;BME280;15662;49.128;8.520;2023-12-20T05:25:59;100640.25;;;11.48;58.74
28428;BME280;15662;49.128;8.520;2023-12-20T05:28:26;100660.41;;;11.55;58.51
28428;BME280;15662;49.128;8.520;2023-12-20T05:30:54;100656.81;;;11.58;58.61
28428;BME280;15662;49.128;8.520;2023-12-20T05:33:21;100648.94;;;11.55;58.40
28428;BME280;15662;49.128;8.520;2023-12-20T05:35:48;100658.34;;;11.67;58.59
28428;BME280;15662;49.128;8.520;2023-12-20T05:38:16;100658.34;;;11.67;58.45
28428;BME280;15662;49.128;8.520;2023-12-20T05:40:43;100667.88;;;11.75;58.18
28428;BME280;15662;49.128;8.520;2023-12-20T05:43:10;100663.41;;;11.77;58.36
28428;BME280;15662;49.128;8.520;2023-12-20T05:45:37;100674.81;;;11.82;58.11
28428;BME280;15662;49.128;8.520;2023-12-20T05:48:05;100672.94;;;11.86;58.39
28428;BME280;15662;49.128;8.520;2023-12-20T05:50:32;100662.34;;;11.84;57.98
28428;BME280;15662;49.128;8.520;2023-12-20T05:52:59;100661.53;;;11.81;57.94
28428;BME280;15662;49.128;8.520;2023-12-20T05:55:26;100670.38;;;11.83;58.05
28428;BME280;15662;49.128;8.520;2023-12-20T05:57:53;100677.31;;;11.87;58.11
28428;BME280;15662;49.128;8.520;2023-12-20T06:00:21;100675.63;;;11.84;58.04
28428;BME280;15662;49.128;8.520;2023-12-20T06:02:48;100670.38;;;11.83;58.13
28428;BME280;15662;49.128;8.520;2023-12-20T06:05:15;100675.66;;;11.81;57.82
28428;BME280;15662;49.128;8.520;2023-12-20T06:07:42;100684.66;;;11.77;57.91
28428;BME280;15662;49.128;8.520;2023-12-20T06:10:10;100690.16;;;11.70;58.09
28428;BME280;15662;49.128;8.520;2023-12-20T06:12:37;100693.78;;;11.66;57.77
28428;BME280;15662;49.128;8.520;2023-12-20T06:15:04;100701.75;;;11.66;57.90
28428;BME280;15662;49.128;8.520;2023-12-20T06:17:32;100694.81;;;11.60;57.98
28428;BME280;15662;49.128;8.520;2023-12-20T06:20:04;100700.13;;;11.60;58.09
28428;BME280;15662;49.128;8.520;2023-12-20T06:22:35;100696.81;;;11.50;58.03
28428;BME280;15662;49.128;8.520;2023-12-20T06:25:04;100710.81;;;11.57;57.79
28428;BME280;15662;49.128;8.520;2023-12-20T06:27:31;100719.63;;;11.57;58.13
28428;BME280;15662;49.128;8.520;2023-12-20T06:29:59;100725.00;;;11.56;57.93
28428;BME280;15662;49.128;8.520;2023-12-20T06:32:26;100729.50;;;11.52;57.79
28428;BME280;15662;49.128;8.520;2023-12-20T06:34:55;100721.63;;;11.49;57.87
28428;BME280;15662;49.128;8.520;2023-12-20T06:37:23;100727.00;;;11.46;57.81
28428;BME280;15662;49.128;8.520;2023-12-20T06:39:50;100729.75;;;11.42;57.82
28428;BME280;15662;49.128;8.520;2023-12-20T06:42:18;100719.22;;;11.39;57.93
28428;BME280;15662;49.128;8.520;2023-12-20T06:44:45;100729.03;;;11.35;57.64
28428;BME280;15662;49.128;8.520;2023-12-20T06:47:12;100734.34;;;11.35;57.96
28428;BME280;15662;49.128;8.520;2023-12-20T06:49:41;100737.97;;;11.31;57.76
28428;BME280;15662;49.128;8.520;2023-12-20T06:52:08;100731.84;;;11.27;57.94
28428;BME280;15662;49.128;8.520;2023-12-20T06:54:35;100739.91;;;11.24;58.03
28428;BME280;15662;49.128;8.520;2023-12-20T06:57:03;100747.97;;;11.20;57.96
28428;BME280;15662;49.128;8.520;2023-12-20T06:59:31;100758.50;;;11.23;57.74
28428;BME280;15662;49.128;8.520;2023-12-20T07:01:58;100763.78;;;11.24;57.75
28428;BME280;15662;49.128;8.520;2023-12-20T07:04:25;100754.97;;;11.24;57.81
28428;BME280;15662;49.128;8.520;2023-12-20T07:06:53;100764.69;;;11.23;57.71
28428;BME280;15662;49.128;8.520;2023-12-20T07:09:24;100764.66;;;11.25;57.58
28428;BME280;15662;49.128;8.520;2023-12-20T07:11:52;100771.66;;;11.29;57.74
28428;BME280;15662;49.128;8.520;2023-12-20T07:14:19;100773.34;;;11.31;57.70
28428;BME280;15662;49.128;8.520;2023-12-20T07:16:46;100771.50;;;11.35;57.66
28428;BME280;15662;49.128;8.520;2023-12-20T07:19:13;100784.72;;;11.38;57.99
28428;BME280;15662;49.128;8.520;2023-12-20T07:21:40;100786.47;;;11.39;57.71
28428;BME280;15662;49.128;8.520;2023-12-20T07:24:08;100781.97;;;11.41;57.76
28428;BME280;15662;49.128;8.520;2023-12-20T07:26:35;100782.84;;;11.43;57.72
28428;BME280;15662;49.128;8.520;2023-12-20T07:29:02;100793.34;;;11.46;57.83
28428;BME280;15662;49.128;8.520;2023-12-20T07:31:31;100784.44;;;11.50;57.75
28428;BME280;15662;49.128;8.520;2023-12-20T07:33:58;100791.47;;;11.51;57.45
28428;BME280;15662;49.128;8.520;2023-12-20T07:36:25;100781.06;;;11.42;57.55
28428;BME280;15662;49.128;8.520;2023-12-20T07:38:53;100794.22;;;11.48;57.32
28428;BME280;15662;49.128;8.520;2023-12-20T07:41:20;100800.41;;;11.47;57.27
28428;BME280;15662;49.128;8.520;2023-12-20T07:43:48;100806.63;;;11.46;56.91
28428;BME280;15662;49.128;8.520;2023-12-20T07:46:16;100803.97;;;11.46;56.83
28428;BME280;15662;49.128;8.520;2023-12-20T07:48:43;100811.13;;;11.44;56.97
28428;BME280;15662;49.128;8.520;2023-12-20T07:51:12;100804.06;;;11.42;56.72
28428;BME280;15662;49.128;8.520;2023-12-20T07:53:39;100805.13;;;11.34;56.99
28428;BME280;15662;49.128;8.520;2023-12-20T07:56:17;100810.44;;;11.34;56.90
28428;BME280;15662;49.128;8.520;2023-12-20T07:58:45;100807.06;;;11.26;56.77
28428;BME280;15662;49.128;8.520;2023-12-20T08:01:20;100814.34;;;11.18;56.67
28428;BME280;15662;49.128;8.520;2023-12-20T08:03:49;100821.44;;;11.16;56.82
28428;BME280;15662;49.128;8.520;2023-12-20T08:06:18;100822.41;;;11.12;57.14
28428;BME280;15662;49.128;8.520;2023-12-20T08:08:45;100822.53;;;11.06;56.96
28428;BME280;15662;49.128;8.520;2023-12-20T08:11:20;100828.88;;;10.99;57.21
28428;BME280;15662;49.128;8.520;2023-12-20T08:13:47;100835.94;;;11.00;57.49
28428;BME280;15662;49.128;8.520;2023-12-20T08:16:15;100830.72;;;10.95;57.28
28428;BME280;15662;49.128;8.520;2023-12-20T08:18:44;100813.16;;;10.88;57.35
28428;BME280;15662;49.128;8.520;2023-12-20T08:21:11;100827.25;;;10.92;57.28
28428;BME280;15662;49.128;8.520;2023-12-20T08:23:39;100834.34;;;10.91;57.33
28428;BME280;15662;49.128;8.520;2023-12-20T08:26:07;100836.13;;;10.91;57.51
28428;BME280;15662;49.128;8.520;2023-12-20T08:28:35;100840.59;;;10.89;57.56
28428;BME280;15662;49.128;8.520;2023-12-20T08:31:03;100832.63;;;10.87;57.71
28428;BME280;15662;49.128;8.520;2023-12-20T08:33:31;100824.78;;;10.82;57.68
28428;BME280;15662;49.128;8.520;2023-12-20T08:35:58;100835.34;;;10.85;57.73
28428;BME280;15662;49.128;8.520;2023-12-20T08:38:25;100839.75;;;10.85;57.94
28428;BME280;15662;49.128;8.520;2023-12-20T08:40:52;100847.63;;;10.88;58.18
28428;BME280;15662;49.128;8.520;2023-12-20T08:43:19;100850.25;;;10.91;58.09
28428;BME280;15662;49.128;8.520;2023-12-20T08:45:47;100848.44;;;10.93;58.14
28428;BME280;15662;49.128;8.520;2023-12-20T08:48:14;100844.84;;;10.96;58.27
28428;BME280;15662;49.128;8.520;2023-12-20T08:50:41;100842.19;;;10.96;58.09
28428;BME280;15662;49.128;8.520;2023-12-20T08:53:08;100835.94;;;10.98;58.17
28428;BME280;15662;49.128;8.520;2023-12-20T08:55:36;100840.34;;;11.01;58.41
28428;BME280;15662;49.128;8.520;2023-12-20T08:58:03;100833.19;;;11.04;58.14
28428;BME280;15662;49.128;8.520;2023-12-20T09:00:30;100846.38;;;11.09;58.21
28428;BME280;15662;49.128;8.520;2023-12-20T09:02:57;100818.97;;;11.07;57.93
28428;BME280;15662;49.128;8.520;2023-12-20T09:05:24;100824.97;;;11.17;57.99
28428;BME280;15662;49.128;8.520;2023-12-20T09:07:52;100819.59;;;11.20;58.03
28428;BME280;15662;49.128;8.520;2023-12-20T09:10:19;100831.06;;;11.22;58.18
28428;BME280;15662;49.128;8.520;2023-12-20T09:12:53;100835.47;;;11.21;58.15
28428;BME280;15662;49.128;8.520;2023-12-20T09:15:26;100838.03;;;11.26;58.00
28428;BME280;15662;49.128;8.520;2023-12-20T09:17:53;100831.78;;;11.30;58.10
28428;BME280;15662;49.128;8.520;2023-12-20T09:20:21;100825.56;;;11.31;58.26
28428;BME280;15662;49.128;8.520;2023-12-20T09:22:50;100832.53;;;11.35;58.15
28428;BME280;15662;49.128;8.520;2023-12-20T09:25:17;100826.38;;;11.34;57.97
28428;BME280;15662;49.128;8.520;2023-12-20T09:27:45;100826.28;;;11.39;57.80
28428;BME280;15662;49.128;8.520;2023-12-20T09:30:12;100827.09;;;11.41;58.11
28428;BME280;15662;49.128;8.520;2023-12-20T09:32:51;100836.75;;;11.45;57.81
28428;BME280;15662;49.128;8.520;2023-12-20T09:35:19;100836.69;;;11.47;57.70
28428;BME280;15662;49.128;8.520;2023-12-20T09:37:46;100826.09;;;11.47;57.59
28428;BME280;15662;49.128;8.520;2023-12-20T09:40:14;100839.25;;;11.51;57.53
28428;BME280;15662;49.128;8.520;2023-12-20T09:43:04;100838.34;;;11.54;57.16
28428;BME280;15662;49.128;8.520;2023-12-20T09:45:35;100839.41;;;11.45;57.35
28428;BME280;15662;49.128;8.520;2023-12-20T09:48:03;100842.78;;;11.52;57.35
28428;BME280;15662;49.128;8.520;2023-12-20T09:50:31;100845.44;;;11.53;57.23
28428;BME280;15662;49.128;8.520;2023-12-20T09:53:01;100844.47;;;11.56;56.89
28428;BME280;15662;49.128;8.520;2023-12-20T09:55:30;100850.66;;;11.56;57.05
28428;BME280;15662;49.128;8.520;2023-12-20T09:58:00;100846.25;;;11.55;56.78
28428;BME280;15662;49.128;8.520;2023-12-20T10:00:27;100839.16;;;11.56;56.59
28428;BME280;15662;49.128;8.520;2023-12-20T10:03:00;100843.56;;;11.57;56.26
28428;BME280;15662;49.128;8.520;2023-12-20T10:05:32;100839.13;;;11.57;56.44
28428;BME280;15662;49.128;8.520;2023-12-20T10:08:01;100839.16;;;11.56;56.28
28428;BME280;15662;49.128;8.520;2023-12-20T10:10:29;100843.59;;;11.55;56.08
28428;BME280;15662;49.128;8.520;2023-12-20T10:13:12;100841.31;;;11.39;56.35
28428;BME280;15662;49.128;8.520;2023-12-20T10:15:40;100842.09;;;11.42;56.08
28428;BME280;15662;49.128;8.520;2023-12-20T10:18:09;100825.31;;;11.42;56.13
28428;BME280;15662;49.128;8.520;2023-12-20T10:20:37;100816.47;;;11.41;56.29
28428;BME280;15662;49.128;8.520;2023-12-20T10:23:07;100818.22;;;11.42;56.18
28428;BME280;15662;49.128;8.520;2023-12-20T10:25:34;100824.50;;;11.40;55.81
28428;BME280;15662;49.128;8.520;2023-12-20T10:30:41;100828.09;;;11.35;56.05
28428;BME280;15662;49.128;8.520;2023-12-20T10:33:10;100829.91;;;11.35;55.90
28428;BME280;15662;49.128;8.520;2023-12-20T10:35:39;100819.28;;;11.35;56.15
28428;BME280;15662;49.128;8.520;2023-12-20T10:38:12;100823.63;;;11.39;56.10
28428;BME280;15662;49.128;8.520;2023-12-20T10:40:42;100824.41;;;11.43;56.06
28428;BME280;15662;49.128;8.520;2023-12-20T10:43:10;100804.06;;;11.43;56.13
28428;BME280;15662;49.128;8.520;2023-12-20T10:45:38;100806.72;;;11.43;56.09
28428;BME280;15662;49.128;8.520;2023-12-20T10:48:06;100817.34;;;11.43;55.85
28428;BME280;15662;49.128;8.520;2023-12-20T10:50:36;100790.13;;;11.33;55.97
28428;BME280;15662;49.128;8.520;2023-12-20T10:53:06;100806.81;;;11.39;55.88
28428;BME280;15662;49.128;8.520;2023-12-20T10:55:34;100805.09;;;11.36;55.74
28428;BME280;15662;49.128;8.520;2023-12-20T10:58:10;100805.94;;;11.38;55.63
28428;BME280;15662;49.128;8.520;2023-12-20T11:00:40;100797.22;;;11.31;55.55
28428;BME280;15662;49.128;8.520;2023-12-20T11:03:12;100806.84;;;11.37;55.82
28428;BME280;15662;49.128;8.520;2023-12-20T11:09:26;100802.28;;;11.42;55.98
28428;BME280;15662;49.128;8.520;2023-12-20T11:12:24;100797.69;;;11.50;56.17
28428;BME280;15662;49.128;8.520;2023-12-20T11:14:56;100794.94;;;11.55;56.09
28428;BME280;15662;49.128;8.520;2023-12-20T11:17:24;100799.16;;;11.63;55.79
28428;BME280;15662;49.128;8.520;2023-12-20T11:22:31;100800.47;;;11.84;55.45
28428;BME280;15662;49.128;8.520;2023-12-20T11:25:10;100797.75;;;11.87;55.55
28428;BME280;15662;49.128;8.520;2023-12-20T11:27:41;100787.94;;;11.90;55.50
28428;BME280;15662;49.128;8.520;2023-12-20T11:30:15;100796.69;;;11.95;55.94
28428;BME280;15662;49.128;8.520;2023-12-20T11:32:46;100786.81;;;12.00;55.71
28428;BME280;15662;49.128;8.520;2023-12-20T11:37:40;100791.91;;;12.09;55.55
28428;BME280;15662;49.128;8.520;2023-12-20T11:40:15;100794.50;;;12.12;55.67
28428;BME280;15662;49.128;8.520;2023-12-20T11:42:49;100790.88;;;12.14;55.55
28428;BME280;15662;49.128;8.520;2023-12-20T11:45:19;100785.63;;;12.11;55.55
28428;BME280;15662;49.128;8.520;2023-12-20T11:47:51;100780.25;;;12.14;55.75
28428;BME280;15662;49.128;8.520;2023-12-20T11:50:19;100788.03;;;12.21;55.52
28428;BME280;15662;49.128;8.520;2023-12-20T11:52:48;100786.19;;;12.24;55.86
28428;BME280;15662;49.128;8.520;2023-12-20T11:55:16;100782.50;;;12.30;55.39
28428;BME280;15662;49.128;8.520;2023-12-20T11:57:44;100785.09;;;12.31;55.22
28428;BME280;15662;49.128;8.520;2023-12-20T12:00:14;100783.38;;;12.30;55.26
28428;BME280;15662;49.128;8.520;2023-12-20T12:02:41;100779.78;;;12.31;55.19
28428;BME280;15662;49.128;8.520;2023-12-20T12:05:10;100785.94;;;12.33;55.10
28428;BME280;15662;49.128;8.520;2023-12-20T12:07:38;100780.72;;;12.30;55.06
28428;BME280;15662;49.128;8.520;2023-12-20T12:10:06;100786.81;;;12.34;55.23
28428;BME280;15662;49.128;8.520;2023-12-20T12:12:33;100785.94;;;12.33;55.20
28428;BME280;15662;49.128;8.520;2023-12-20T12:15:00;100780.59;;;12.35;55.26
28428;BME280;15662;49.128;8.520;2023-12-20T12:17:30;100767.41;;;12.30;55.19
28428;BME280;15662;49.128;8.520;2023-12-20T12:20:04;100782.13;;;12.44;55.19
28428;BME280;15662;49.128;8.520;2023-12-20T12:22:32;100783.97;;;12.42;55.19
28428;BME280;15662;49.128;8.520;2023-12-20T12:25:10;100775.84;;;12.46;54.82
28428;BME280;15662;49.128;8.520;2023-12-20T12:27:42;100783.88;;;12.45;55.37
28428;BME280;15662;49.128;8.520;2023-12-20T12:30:10;100772.44;;;12.41;55.45
28428;BME280;15662;49.128;8.520;2023-12-20T12:32:40;100772.44;;;12.41;55.12
28428;BME280;15662;49.128;8.520;2023-12-20T12:35:08;100760.81;;;12.45;54.90
28428;BME280;15662;49.128;8.520;2023-12-20T12:37:40;100760.00;;;12.43;55.19
28428;BME280;15662;49.128;8.520;2023-12-20T12:40:13;100746.66;;;12.45;55.29
28428;BME280;15662;49.128;8.520;2023-12-20T12:42:42;100749.00;;;12.55;54.99
28428;BME280;15662;49.128;8.520;2023-12-20T12:45:11;100747.31;;;12.53;54.98
28428;BME280;15662;49.128;8.520;2023-12-20T12:47:39;100753.34;;;12.59;54.71
28428;BME280;15662;49.128;8.520;2023-12-20T12:50:07;100749.69;;;12.63;54.94
28428;BME280;15662;49.128;8.520;2023-12-20T12:52:35;100744.41;;;12.62;54.92
28428;BME280;15662;49.128;8.520;2023-12-20T12:55:03;100750.63;;;12.61;54.55
28428;BME280;15662;49.128;8.520;2023-12-20T12:57:32;100751.66;;;12.57;54.66
28428;BME280;15662;49.128;8.520;2023-12-20T13:00:01;100762.44;;;12.51;54.62
28428;BME280;15662;49.128;8.520;2023-12-20T13:02:29;100758.97;;;12.49;54.33
28428;BME280;15662;49.128;8.520;2023-12-20T13:04:57;100748.44;;;12.44;54.55
28428;BME280;15662;49.128;8.520;2023-12-20T13:07:24;100753.81;;;12.43;54.46